首页
METAR-TAF:

METAR-TAF

机场 :

杜林機場

都灵, 意大利

纬度: 45-13N, 经度: 007-39E, 海拔: 301米

当前天气观测

该预报发布于38分钟前的10:50 UTC
风速3节,风向,在南转南东西南之间变化
温度 7°C
湿度 61%
气压 1022 hPa
能見度: 8000

METAR: LIMF 261050Z 18003KT 150V230 8000 NSC 07/00 Q1022

时间: 12:28 (11:28 UTC)

预报

该预报发布于6小时和28分钟前的05:00 UTC
预报有效从26日的 06点(UTC)到 27日的 06点(UTC)
风速5节,风向多变
能見度: 8000
短暂存在
从 26日的 06点(UTC)到 26日的 08点(UTC)
能見度: 3000
轻雾
短暂存在
从 27日的 02点(UTC)到 27日的 06点(UTC)
能見度: 3000
轻雾

TAF: LIMF 260500Z 2606/2706 VRB05KT 8000 NSC TEMPO 2606/2608 3000 BR TEMPO 2702/2706 3000 BR

超过4000个机场的气象观测和天气预报(METAR&TAF报告)。

可查询的气象台以黄色和红色小点在地图上表示。

将鼠标移到小点上方,可查看气象台名称。

然后点击查看天气观测和预报。

如需切换地图:点击带黑十字的绿色按钮放大地图;点击带横线的绿色按钮缩小地图;或者点击绿色箭头查看邻近地区的地图。


METAR-TAF: